sensor_id;sensor_type;location;lat;lon;timestamp;temperature;humidity
674;DHT22;319;48.764;9.174;2022-10-16T00:00:39;18.40;99.90
674;DHT22;319;48.764;9.174;2022-10-16T00:03:07;18.30;99.90
674;DHT22;319;48.764;9.174;2022-10-16T00:05:39;18.30;99.90
674;DHT22;319;48.764;9.174;2022-10-16T00:08:06;18.20;99.90
674;DHT22;319;48.764;9.174;2022-10-16T00:10:33;18.20;99.90
674;DHT22;319;48.764;9.174;2022-10-16T00:13:01;18.20;99.90
674;DHT22;319;48.764;9.174;2022-10-16T00:15:28;18.20;99.90
674;DHT22;319;48.764;9.174;2022-10-16T00:17:55;18.20;99.90
674;DHT22;319;48.764;9.174;2022-10-16T00:20:22;18.20;99.90
674;DHT22;319;48.764;9.174;2022-10-16T00:22:49;18.20;99.90
674;DHT22;319;48.764;9.174;2022-10-16T00:25:16;18.10;99.90
674;DHT22;319;48.764;9.174;2022-10-16T00:27:42;18.20;99.90
674;DHT22;319;48.764;9.174;2022-10-16T00:30:11;18.10;99.90
674;DHT22;319;48.764;9.174;2022-10-16T00:32:38;18.10;99.90
674;DHT22;319;48.764;9.174;2022-10-16T00:35:05;18.00;99.90
674;DHT22;319;48.764;9.174;2022-10-16T00:37:32;18.00;99.90
674;DHT22;319;48.764;9.174;2022-10-16T00:40:00;17.90;99.90
674;DHT22;319;48.764;9.174;2022-10-16T00:42:26;17.90;99.90
674;DHT22;319;48.764;9.174;2022-10-16T00:44:55;17.80;99.90
674;DHT22;319;48.764;9.174;2022-10-16T00:47:27;17.80;99.90
674;DHT22;319;48.764;9.174;2022-10-16T00:49:59;17.80;99.90
674;DHT22;319;48.764;9.174;2022-10-16T00:52:26;17.80;99.90
674;DHT22;319;48.764;9.174;2022-10-16T00:54:54;17.80;99.90
674;DHT22;319;48.764;9.174;2022-10-16T00:57:22;17.80;99.90
674;DHT22;319;48.764;9.174;2022-10-16T00:59:49;17.80;99.90
674;DHT22;319;48.764;9.174;2022-10-16T01:02:17;17.80;99.90
674;DHT22;319;48.764;9.174;2022-10-16T01:04:47;17.80;99.90
674;DHT22;319;48.764;9.174;2022-10-16T01:07:24;17.70;99.90
674;DHT22;319;48.764;9.174;2022-10-16T01:10:02;17.70;99.90
674;DHT22;319;48.764;9.174;2022-10-16T01:12:38;17.70;99.90
674;DHT22;319;48.764;9.174;2022-10-16T01:15:10;17.70;99.90
674;DHT22;319;48.764;9.174;2022-10-16T01:17:43;17.80;99.90
674;DHT22;319;48.764;9.174;2022-10-16T01:20:20;17.80;99.90
674;DHT22;319;48.764;9.174;2022-10-16T01:23:09;17.90;99.90
674;DHT22;319;48.764;9.174;2022-10-16T01:28:36;17.90;99.90
674;DHT22;319;48.764;9.174;2022-10-16T01:31:05;18.00;99.90
674;DHT22;319;48.764;9.174;2022-10-16T01:33:37;17.90;99.90
674;DHT22;319;48.764;9.174;2022-10-16T01:36:10;17.90;99.90
674;DHT22;319;48.764;9.174;2022-10-16T01:38:39;18.00;99.90
674;DHT22;319;48.764;9.174;2022-10-16T01:41:11;18.00;99.90
674;DHT22;319;48.764;9.174;2022-10-16T01:43:43;18.00;99.90
674;DHT22;319;48.764;9.174;2022-10-16T01:46:14;17.90;99.90
674;DHT22;319;48.764;9.174;2022-10-16T01:48:42;18.00;99.90
674;DHT22;319;48.764;9.174;2022-10-16T01:51:11;17.90;99.90
674;DHT22;319;48.764;9.174;2022-10-16T01:53:39;18.00;99.90
674;DHT22;319;48.764;9.174;2022-10-16T01:56:08;18.00;99.90
674;DHT22;319;48.764;9.174;2022-10-16T01:58:41;18.10;99.90
674;DHT22;319;48.764;9.174;2022-10-16T02:01:11;18.10;99.90
674;DHT22;319;48.764;9.174;2022-10-16T02:03:40;18.10;99.90
674;DHT22;319;48.764;9.174;2022-10-16T02:06:09;18.10;99.90
674;DHT22;319;48.764;9.174;2022-10-16T02:08:36;18.20;99.90
674;DHT22;319;48.764;9.174;2022-10-16T02:11:04;18.20;99.90
674;DHT22;319;48.764;9.174;2022-10-16T02:13:34;18.10;99.90
674;DHT22;319;48.764;9.174;2022-10-16T02:16:05;18.00;99.90
674;DHT22;319;48.764;9.174;2022-10-16T02:18:32;18.00;99.90
674;DHT22;319;48.764;9.174;2022-10-16T02:21:02;18.00;99.90
674;DHT22;319;48.764;9.174;2022-10-16T02:23:36;17.90;99.90
674;DHT22;319;48.764;9.174;2022-10-16T02:26:07;17.90;99.90
674;DHT22;319;48.764;9.174;2022-10-16T02:28:40;18.00;99.90
674;DHT22;319;48.764;9.174;2022-10-16T02:31:11;18.00;99.90
674;DHT22;319;48.764;9.174;2022-10-16T02:33:40;18.00;99.90
674;DHT22;319;48.764;9.174;2022-10-16T02:36:09;17.90;99.90
674;DHT22;319;48.764;9.174;2022-10-16T02:38:37;18.00;99.90
674;DHT22;319;48.764;9.174;2022-10-16T02:41:05;18.00;99.90
674;DHT22;319;48.764;9.174;2022-10-16T02:43:33;18.00;99.90
674;DHT22;319;48.764;9.174;2022-10-16T02:46:00;18.00;99.90
674;DHT22;319;48.764;9.174;2022-10-16T02:48:28;18.10;99.90
674;DHT22;319;48.764;9.174;2022-10-16T02:50:54;18.20;99.90
674;DHT22;319;48.764;9.174;2022-10-16T02:53:22;18.20;99.90
674;DHT22;319;48.764;9.174;2022-10-16T02:55:49;18.20;99.90
674;DHT22;319;48.764;9.174;2022-10-16T02:58:16;18.20;99.90
674;DHT22;319;48.764;9.174;2022-10-16T03:00:43;18.10;99.90
674;DHT22;319;48.764;9.174;2022-10-16T03:03:10;18.10;99.90
674;DHT22;319;48.764;9.174;2022-10-16T03:05:38;18.10;99.90
674;DHT22;319;48.764;9.174;2022-10-16T03:08:05;18.10;99.90
674;DHT22;319;48.764;9.174;2022-10-16T03:10:31;18.10;99.90
674;DHT22;319;48.764;9.174;2022-10-16T03:12:58;18.10;99.90
674;DHT22;319;48.764;9.174;2022-10-16T03:15:25;18.00;99.90
674;DHT22;319;48.764;9.174;2022-10-16T03:17:53;18.00;99.90
674;DHT22;319;48.764;9.174;2022-10-16T03:20:20;18.00;99.90
674;DHT22;319;48.764;9.174;2022-10-16T03:22:48;18.10;99.90
674;DHT22;319;48.764;9.174;2022-10-16T03:25:15;18.00;99.90
674;DHT22;319;48.764;9.174;2022-10-16T03:27:42;18.00;99.90
674;DHT22;319;48.764;9.174;2022-10-16T03:30:10;18.00;99.90
674;DHT22;319;48.764;9.174;2022-10-16T03:32:36;18.00;99.90
674;DHT22;319;48.764;9.174;2022-10-16T03:35:04;17.90;99.90
674;DHT22;319;48.764;9.174;2022-10-16T03:37:31;17.90;99.90
674;DHT22;319;48.764;9.174;2022-10-16T03:39:59;17.90;99.90
674;DHT22;319;48.764;9.174;2022-10-16T03:42:26;17.90;99.90
674;DHT22;319;48.764;9.174;2022-10-16T03:44:53;17.90;99.90
674;DHT22;319;48.764;9.174;2022-10-16T03:47:19;17.90;99.90
674;DHT22;319;48.764;9.174;2022-10-16T03:49:48;17.90;99.90
674;DHT22;319;48.764;9.174;2022-10-16T03:52:15;17.80;99.90
674;DHT22;319;48.764;9.174;2022-10-16T03:54:42;17.80;99.90
674;DHT22;319;48.764;9.174;2022-10-16T03:57:11;17.70;99.90
674;DHT22;319;48.764;9.174;2022-10-16T03:59:38;17.70;99.90
674;DHT22;319;48.764;9.174;2022-10-16T04:02:04;17.70;99.90
674;DHT22;319;48.764;9.174;2022-10-16T04:04:31;17.60;99.90
674;DHT22;319;48.764;9.174;2022-10-16T04:06:58;17.60;99.90
674;DHT22;319;48.764;9.174;2022-10-16T04:09:25;17.60;99.90
674;DHT22;319;48.764;9.174;2022-10-16T04:11:52;17.60;99.90
674;DHT22;319;48.764;9.174;2022-10-16T04:14:20;17.60;99.90
674;DHT22;319;48.764;9.174;2022-10-16T04:16:47;17.50;99.90
674;DHT22;319;48.764;9.174;2022-10-16T04:19:13;17.50;99.90
674;DHT22;319;48.764;9.174;2022-10-16T04:21:40;17.50;99.90
674;DHT22;319;48.764;9.174;2022-10-16T04:24:07;17.50;99.90
674;DHT22;319;48.764;9.174;2022-10-16T04:26:34;17.50;99.90
674;DHT22;319;48.764;9.174;2022-10-16T04:29:00;17.50;99.90
674;DHT22;319;48.764;9.174;2022-10-16T04:31:28;17.50;99.90
674;DHT22;319;48.764;9.174;2022-10-16T04:33:55;17.50;99.90
674;DHT22;319;48.764;9.174;2022-10-16T04:36:22;17.60;99.90
674;DHT22;319;48.764;9.174;2022-10-16T04:38:49;17.60;99.90
674;DHT22;319;48.764;9.174;2022-10-16T04:41:16;17.60;99.90
674;DHT22;319;48.764;9.174;2022-10-16T04:43:42;17.70;99.90
674;DHT22;319;48.764;9.174;2022-10-16T04:46:09;17.70;99.90
674;DHT22;319;48.764;9.174;2022-10-16T04:48:37;17.70;99.90
674;DHT22;319;48.764;9.174;2022-10-16T04:51:04;17.70;99.90
674;DHT22;319;48.764;9.174;2022-10-16T04:53:31;17.70;99.90
674;DHT22;319;48.764;9.174;2022-10-16T04:55:58;17.80;99.90
674;DHT22;319;48.764;9.174;2022-10-16T04:58:25;17.70;99.90
674;DHT22;319;48.764;9.174;2022-10-16T05:00:52;17.80;99.90
674;DHT22;319;48.764;9.174;2022-10-16T05:03:19;17.80;99.90
674;DHT22;319;48.764;9.174;2022-10-16T05:05:47;17.80;99.90
674;DHT22;319;48.764;9.174;2022-10-16T05:08:16;17.80;99.90
674;DHT22;319;48.764;9.174;2022-10-16T05:10:44;17.80;99.90
674;DHT22;319;48.764;9.174;2022-10-16T05:13:11;17.80;99.90
674;DHT22;319;48.764;9.174;2022-10-16T05:15:38;17.80;99.90
674;DHT22;319;48.764;9.174;2022-10-16T05:18:04;17.80;99.90
674;DHT22;319;48.764;9.174;2022-10-16T05:20:31;17.80;99.90
674;DHT22;319;48.764;9.174;2022-10-16T05:22:59;17.80;99.90
674;DHT22;319;48.764;9.174;2022-10-16T05:25:26;17.70;99.90
674;DHT22;319;48.764;9.174;2022-10-16T05:27:53;17.80;99.90
674;DHT22;319;48.764;9.174;2022-10-16T05:30:20;17.80;99.90
674;DHT22;319;48.764;9.174;2022-10-16T05:32:47;17.80;99.90
674;DHT22;319;48.764;9.174;2022-10-16T05:35:14;17.80;99.90
674;DHT22;319;48.764;9.174;2022-10-16T05:37:41;17.80;99.90
674;DHT22;319;48.764;9.174;2022-10-16T05:40:10;17.80;99.90
674;DHT22;319;48.764;9.174;2022-10-16T05:42:38;17.80;99.90
674;DHT22;319;48.764;9.174;2022-10-16T05:45:06;17.70;99.90
674;DHT22;319;48.764;9.174;2022-10-16T05:47:33;17.70;99.90
674;DHT22;319;48.764;9.174;2022-10-16T05:50:00;17.60;99.90
674;DHT22;319;48.764;9.174;2022-10-16T05:52:27;17.60;99.90
674;DHT22;319;48.764;9.174;2022-10-16T05:54:54;17.60;99.90
674;DHT22;319;48.764;9.174;2022-10-16T05:57:22;17.60;99.90
674;DHT22;319;48.764;9.174;2022-10-16T05:59:48;17.60;99.90
674;DHT22;319;48.764;9.174;2022-10-16T06:02:15;17.50;99.90
674;DHT22;319;48.764;9.174;2022-10-16T06:04:42;17.50;99.90
674;DHT22;319;48.764;9.174;2022-10-16T06:07:09;17.50;99.90
674;DHT22;319;48.764;9.174;2022-10-16T06:09:36;17.50;99.90
674;DHT22;319;48.764;9.174;2022-10-16T06:12:03;17.50;99.90
674;DHT22;319;48.764;9.174;2022-10-16T06:14:31;17.40;99.90
674;DHT22;319;48.764;9.174;2022-10-16T06:16:58;17.50;99.90
674;DHT22;319;48.764;9.174;2022-10-16T06:19:24;17.50;99.90
674;DHT22;319;48.764;9.174;2022-10-16T06:21:51;17.50;99.90
674;DHT22;319;48.764;9.174;2022-10-16T06:24:18;17.60;99.90
674;DHT22;319;48.764;9.174;2022-10-16T06:26:45;17.60;99.90
674;DHT22;319;48.764;9.174;2022-10-16T06:29:12;17.60;99.90
674;DHT22;319;48.764;9.174;2022-10-16T06:31:40;17.60;99.90
674;DHT22;319;48.764;9.174;2022-10-16T06:34:09;17.70;99.90
674;DHT22;319;48.764;9.174;2022-10-16T06:36:37;17.70;99.90
674;DHT22;319;48.764;9.174;2022-10-16T06:39:05;17.80;99.90
674;DHT22;319;48.764;9.174;2022-10-16T06:41:32;17.80;99.90
674;DHT22;319;48.764;9.174;2022-10-16T06:44:00;17.80;99.90
674;DHT22;319;48.764;9.174;2022-10-16T06:46:27;17.90;99.90
674;DHT22;319;48.764;9.174;2022-10-16T06:48:55;17.90;99.90
674;DHT22;319;48.764;9.174;2022-10-16T06:51:24;17.90;99.90
674;DHT22;319;48.764;9.174;2022-10-16T06:53:52;18.10;99.90
674;DHT22;319;48.764;9.174;2022-10-16T06:56:21;18.20;99.90
674;DHT22;319;48.764;9.174;2022-10-16T06:58:49;18.20;99.90
674;DHT22;319;48.764;9.174;2022-10-16T07:01:18;18.20;99.90
674;DHT22;319;48.764;9.174;2022-10-16T07:03:46;18.30;99.90
674;DHT22;319;48.764;9.174;2022-10-16T07:06:16;18.40;99.90
674;DHT22;319;48.764;9.174;2022-10-16T07:08:44;18.40;99.90
674;DHT22;319;48.764;9.174;2022-10-16T07:11:12;18.50;99.90
674;DHT22;319;48.764;9.174;2022-10-16T07:13:41;18.50;99.90
674;DHT22;319;48.764;9.174;2022-10-16T07:16:09;18.60;99.90
674;DHT22;319;48.764;9.174;2022-10-16T07:18:37;18.60;99.90
674;DHT22;319;48.764;9.174;2022-10-16T07:21:06;18.70;99.90
674;DHT22;319;48.764;9.174;2022-10-16T07:23:35;18.80;99.90
674;DHT22;319;48.764;9.174;2022-10-16T07:26:02;18.90;99.90
674;DHT22;319;48.764;9.174;2022-10-16T07:28:30;18.90;99.90
674;DHT22;319;48.764;9.174;2022-10-16T07:31:00;18.90;99.90
674;DHT22;319;48.764;9.174;2022-10-16T07:33:28;18.90;99.90
674;DHT22;319;48.764;9.174;2022-10-16T07:35:55;18.90;99.90
674;DHT22;319;48.764;9.174;2022-10-16T07:38:23;18.90;99.90
674;DHT22;319;48.764;9.174;2022-10-16T07:40:57;18.90;99.90
674;DHT22;319;48.764;9.174;2022-10-16T07:43:24;18.90;99.90
674;DHT22;319;48.764;9.174;2022-10-16T07:45:52;18.90;99.90
674;DHT22;319;48.764;9.174;2022-10-16T07:48:19;19.00;99.90
674;DHT22;319;48.764;9.174;2022-10-16T07:50:46;19.00;99.90
674;DHT22;319;48.764;9.174;2022-10-16T07:53:13;19.10;99.90
674;DHT22;319;48.764;9.174;2022-10-16T07:55:41;19.10;99.90
674;DHT22;319;48.764;9.174;2022-10-16T07:58:09;19.10;99.90
674;DHT22;319;48.764;9.174;2022-10-16T08:00:36;19.20;99.90
674;DHT22;319;48.764;9.174;2022-10-16T08:03:04;19.20;99.90
674;DHT22;319;48.764;9.174;2022-10-16T08:05:32;19.30;99.90
674;DHT22;319;48.764;9.174;2022-10-16T08:08:00;19.30;99.90
674;DHT22;319;48.764;9.174;2022-10-16T08:10:27;19.40;99.90
674;DHT22;319;48.764;9.174;2022-10-16T08:12:54;19.40;99.90
674;DHT22;319;48.764;9.174;2022-10-16T08:15:23;19.40;99.90
674;DHT22;319;48.764;9.174;2022-10-16T08:18:00;19.50;99.90
674;DHT22;319;48.764;9.174;2022-10-16T08:20:28;19.60;99.90
674;DHT22;319;48.764;9.174;2022-10-16T08:22:56;19.70;99.90
674;DHT22;319;48.764;9.174;2022-10-16T08:25:23;19.70;99.90
674;DHT22;319;48.764;9.174;2022-10-16T08:27:51;19.90;99.90
674;DHT22;319;48.764;9.174;2022-10-16T08:30:19;20.00;99.90
674;DHT22;319;48.764;9.174;2022-10-16T08:32:47;20.00;99.90
674;DHT22;319;48.764;9.174;2022-10-16T08:35:15;20.10;99.90
674;DHT22;319;48.764;9.174;2022-10-16T08:37:42;20.30;99.90
674;DHT22;319;48.764;9.174;2022-10-16T08:40:17;20.30;99.90
674;DHT22;319;48.764;9.174;2022-10-16T08:42:59;20.40;99.90
674;DHT22;319;48.764;9.174;2022-10-16T08:46:01;20.70;99.90
674;DHT22;319;48.764;9.174;2022-10-16T08:48:36;20.70;99.90
674;DHT22;319;48.764;9.174;2022-10-16T08:51:09;20.80;99.90
674;DHT22;319;48.764;9.174;2022-10-16T08:53:45;20.80;99.90
674;DHT22;319;48.764;9.174;2022-10-16T08:56:15;20.70;99.90
674;DHT22;319;48.764;9.174;2022-10-16T08:58:45;20.50;99.90
674;DHT22;319;48.764;9.174;2022-10-16T09:01:14;20.50;99.90
674;DHT22;319;48.764;9.174;2022-10-16T09:07:02;20.50;99.90
674;DHT22;319;48.764;9.174;2022-10-16T09:09:44;20.60;99.90
674;DHT22;319;48.764;9.174;2022-10-16T09:12:22;20.60;99.90
674;DHT22;319;48.764;9.174;2022-10-16T09:15:05;20.80;99.80
674;DHT22;319;48.764;9.174;2022-10-16T09:17:41;20.90;99.20
674;DHT22;319;48.764;9.174;2022-10-16T09:20:36;21.00;99.20
674;DHT22;319;48.764;9.174;2022-10-16T09:23:16;21.10;99.40
674;DHT22;319;48.764;9.174;2022-10-16T09:25:46;21.20;98.90
674;DHT22;319;48.764;9.174;2022-10-16T09:28:15;21.30;99.00
674;DHT22;319;48.764;9.174;2022-10-16T09:30:44;21.40;99.00
674;DHT22;319;48.764;9.174;2022-10-16T09:33:12;21.50;98.80
674;DHT22;319;48.764;9.174;2022-10-16T09:35:40;21.50;98.90
674;DHT22;319;48.764;9.174;2022-10-16T09:38:08;21.60;98.50
674;DHT22;319;48.764;9.174;2022-10-16T09:40:38;21.80;98.50
674;DHT22;319;48.764;9.174;2022-10-16T09:43:20;22.00;98.50
674;DHT22;319;48.764;9.174;2022-10-16T09:45:59;22.00;97.70
674;DHT22;319;48.764;9.174;2022-10-16T09:48:32;22.00;97.80
674;DHT22;319;48.764;9.174;2022-10-16T09:51:02;22.00;97.60
674;DHT22;319;48.764;9.174;2022-10-16T09:53:39;22.10;97.60
674;DHT22;319;48.764;9.174;2022-10-16T09:56:10;22.40;97.60
674;DHT22;319;48.764;9.174;2022-10-16T09:58:42;22.60;96.90
674;DHT22;319;48.764;9.174;2022-10-16T10:01:12;22.80;96.40
674;DHT22;319;48.764;9.174;2022-10-16T10:03:40;22.90;96.10
674;DHT22;319;48.764;9.174;2022-10-16T10:06:18;22.90;96.10
674;DHT22;319;48.764;9.174;2022-10-16T10:08:56;22.90;96.10
674;DHT22;319;48.764;9.174;2022-10-16T10:11:43;23.00;96.00
674;DHT22;319;48.764;9.174;2022-10-16T10:14:27;23.10;96.10
674;DHT22;319;48.764;9.174;2022-10-16T10:17:09;23.20;95.40
674;DHT22;319;48.764;9.174;2022-10-16T10:19:42;23.40;95.00
674;DHT22;319;48.764;9.174;2022-10-16T10:22:24;23.50;94.80
674;DHT22;319;48.764;9.174;2022-10-16T10:24:56;23.60;94.50
674;DHT22;319;48.764;9.174;2022-10-16T10:27:32;23.80;94.00
674;DHT22;319;48.764;9.174;2022-10-16T10:30:06;23.80;93.90
674;DHT22;319;48.764;9.174;2022-10-16T10:32:43;23.80;93.90
674;DHT22;319;48.764;9.174;2022-10-16T10:35:17;23.70;93.60
674;DHT22;319;48.764;9.174;2022-10-16T10:37:57;23.80;93.80
674;DHT22;319;48.764;9.174;2022-10-16T10:40:39;23.90;93.40
674;DHT22;319;48.764;9.174;2022-10-16T10:43:18;23.90;93.20
674;DHT22;319;48.764;9.174;2022-10-16T10:45:52;24.10;93.40
674;DHT22;319;48.764;9.174;2022-10-16T10:48:32;24.30;93.20
674;DHT22;319;48.764;9.174;2022-10-16T10:51:10;24.40;93.10
674;DHT22;319;48.764;9.174;2022-10-16T10:53:43;24.60;92.70
674;DHT22;319;48.764;9.174;2022-10-16T10:56:23;24.90;92.60
674;DHT22;319;48.764;9.174;2022-10-16T10:59:08;25.20;91.90
674;DHT22;319;48.764;9.174;2022-10-16T11:01:43;25.30;91.70
674;DHT22;319;48.764;9.174;2022-10-16T11:07:19;25.20;90.90
674;DHT22;319;48.764;9.174;2022-10-16T11:09:49;25.30;91.00
674;DHT22;319;48.764;9.174;2022-10-16T11:12:20;25.30;91.00
674;DHT22;319;48.764;9.174;2022-10-16T11:14:54;25.40;91.10
674;DHT22;319;48.764;9.174;2022-10-16T11:17:26;25.30;91.70
674;DHT22;319;48.764;9.174;2022-10-16T11:19:58;25.30;90.90
674;DHT22;319;48.764;9.174;2022-10-16T11:22:30;25.20;90.60
674;DHT22;319;48.764;9.174;2022-10-16T11:25:02;25.30;91.60
674;DHT22;319;48.764;9.174;2022-10-16T11:27:37;25.10;92.00
674;DHT22;319;48.764;9.174;2022-10-16T11:30:14;24.90;92.40
674;DHT22;319;48.764;9.174;2022-10-16T11:32:52;24.90;92.60
674;DHT22;319;48.764;9.174;2022-10-16T11:35:25;24.90;91.50
674;DHT22;319;48.764;9.174;2022-10-16T11:37:56;25.00;91.70
674;DHT22;319;48.764;9.174;2022-10-16T11:40:27;25.10;90.60
674;DHT22;319;48.764;9.174;2022-10-16T11:43:01;25.10;90.80
674;DHT22;319;48.764;9.174;2022-10-16T11:45:34;25.20;90.60
674;DHT22;319;48.764;9.174;2022-10-16T11:48:08;25.30;90.10
674;DHT22;319;48.764;9.174;2022-10-16T11:50:45;25.40;90.10
674;DHT22;319;48.764;9.174;2022-10-16T11:53:21;25.50;89.50
674;DHT22;319;48.764;9.174;2022-10-16T11:55:50;25.50;87.60
674;DHT22;319;48.764;9.174;2022-10-16T11:58:24;25.50;88.10
674;DHT22;319;48.764;9.174;2022-10-16T12:00:58;25.60;88.50
674;DHT22;319;48.764;9.174;2022-10-16T12:03:29;25.70;90.00
674;DHT22;319;48.764;9.174;2022-10-16T12:06:15;25.80;90.30
674;DHT22;319;48.764;9.174;2022-10-16T12:08:46;25.90;90.10
674;DHT22;319;48.764;9.174;2022-10-16T12:11:24;26.00;89.50
674;DHT22;319;48.764;9.174;2022-10-16T12:14:05;25.90;88.70
674;DHT22;319;48.764;9.174;2022-10-16T12:16:37;26.00;89.00
674;DHT22;319;48.764;9.174;2022-10-16T12:19:13;26.00;87.90
674;DHT22;319;48.764;9.174;2022-10-16T12:21:41;26.00;87.00
674;DHT22;319;48.764;9.174;2022-10-16T12:24:21;25.90;87.30
674;DHT22;319;48.764;9.174;2022-10-16T12:26:52;25.90;87.70
674;DHT22;319;48.764;9.174;2022-10-16T12:29:31;25.90;87.20
674;DHT22;319;48.764;9.174;2022-10-16T12:32:01;25.90;86.70
674;DHT22;319;48.764;9.174;2022-10-16T12:34:32;26.00;86.90
674;DHT22;319;48.764;9.174;2022-10-16T12:37:10;26.00;86.80
674;DHT22;319;48.764;9.174;2022-10-16T12:39:38;26.00;86.50
674;DHT22;319;48.764;9.174;2022-10-16T12:42:21;26.10;86.50
674;DHT22;319;48.764;9.174;2022-10-16T12:44:48;26.10;86.50
674;DHT22;319;48.764;9.174;2022-10-16T12:47:23;26.10;86.40
674;DHT22;319;48.764;9.174;2022-10-16T12:49:52;26.10;86.70
674;DHT22;319;48.764;9.174;2022-10-16T12:52:27;26.10;86.20
674;DHT22;319;48.764;9.174;2022-10-16T12:54:57;26.00;85.80
674;DHT22;319;48.764;9.174;2022-10-16T12:57:41;26.00;85.70
674;DHT22;319;48.764;9.174;2022-10-16T13:00:20;25.90;85.90
674;DHT22;319;48.764;9.174;2022-10-16T13:06:17;25.40;89.00
674;DHT22;319;48.764;9.174;2022-10-16T13:12:15;25.00;90.50
674;DHT22;319;48.764;9.174;2022-10-16T13:17:47;24.80;90.80
674;DHT22;319;48.764;9.174;2022-10-16T13:20:22;24.80;90.80
674;DHT22;319;48.764;9.174;2022-10-16T13:23:01;24.90;91.00
674;DHT22;319;48.764;9.174;2022-10-16T13:25:37;24.90;91.00
674;DHT22;319;48.764;9.174;2022-10-16T13:28:08;24.90;90.70
674;DHT22;319;48.764;9.174;2022-10-16T13:30:39;24.90;90.80
674;DHT22;319;48.764;9.174;2022-10-16T13:33:13;24.90;91.00
674;DHT22;319;48.764;9.174;2022-10-16T13:35:48;24.90;91.10
674;DHT22;319;48.764;9.174;2022-10-16T13:38:18;25.00;91.00
674;DHT22;319;48.764;9.174;2022-10-16T13:40:54;25.10;90.80
674;DHT22;319;48.764;9.174;2022-10-16T13:43:24;25.20;90.60
674;DHT22;319;48.764;9.174;2022-10-16T13:45:54;25.20;90.40
674;DHT22;319;48.764;9.174;2022-10-16T13:48:21;25.30;90.40
674;DHT22;319;48.764;9.174;2022-10-16T13:51:02;25.20;90.30
674;DHT22;319;48.764;9.174;2022-10-16T13:53:32;25.30;90.40
674;DHT22;319;48.764;9.174;2022-10-16T13:56:00;25.40;90.50
674;DHT22;319;48.764;9.174;2022-10-16T13:58:28;25.40;90.40
674;DHT22;319;48.764;9.174;2022-10-16T14:00:56;25.40;90.00
674;DHT22;319;48.764;9.174;2022-10-16T14:03:25;25.50;90.20
674;DHT22;319;48.764;9.174;2022-10-16T14:05:54;25.40;90.00
674;DHT22;319;48.764;9.174;2022-10-16T14:08:22;25.20;89.80
674;DHT22;319;48.764;9.174;2022-10-16T14:10:53;25.10;90.30
674;DHT22;319;48.764;9.174;2022-10-16T14:13:26;24.90;90.70
674;DHT22;319;48.764;9.174;2022-10-16T14:15:53;24.90;90.90
674;DHT22;319;48.764;9.174;2022-10-16T14:18:25;24.80;91.00
674;DHT22;319;48.764;9.174;2022-10-16T14:20:53;24.70;91.10
674;DHT22;319;48.764;9.174;2022-10-16T14:23:23;24.70;91.40
674;DHT22;319;48.764;9.174;2022-10-16T14:26:06;24.80;92.80
674;DHT22;319;48.764;9.174;2022-10-16T14:28:33;24.80;93.70
674;DHT22;319;48.764;9.174;2022-10-16T14:31:01;24.80;94.00
674;DHT22;319;48.764;9.174;2022-10-16T14:33:33;24.80;94.40
674;DHT22;319;48.764;9.174;2022-10-16T14:36:03;24.80;94.50
674;DHT22;319;48.764;9.174;2022-10-16T14:38:30;24.60;94.30
674;DHT22;319;48.764;9.174;2022-10-16T14:41:00;24.50;94.80
674;DHT22;319;48.764;9.174;2022-10-16T14:43:32;24.40;95.10
674;DHT22;319;48.764;9.174;2022-10-16T14:46:02;24.20;95.60
674;DHT22;319;48.764;9.174;2022-10-16T14:48:30;24.20;95.90
674;DHT22;319;48.764;9.174;2022-10-16T14:50:57;24.10;96.30
674;DHT22;319;48.764;9.174;2022-10-16T14:53:24;24.00;96.40
674;DHT22;319;48.764;9.174;2022-10-16T14:55:51;23.90;96.50
674;DHT22;319;48.764;9.174;2022-10-16T14:58:21;23.90;96.60
674;DHT22;319;48.764;9.174;2022-10-16T15:00:50;23.90;96.20
674;DHT22;319;48.764;9.174;2022-10-16T15:03:17;23.90;96.10
674;DHT22;319;48.764;9.174;2022-10-16T15:05:43;24.00;95.90
674;DHT22;319;48.764;9.174;2022-10-16T15:08:10;24.00;96.10
674;DHT22;319;48.764;9.174;2022-10-16T15:10:40;24.00;96.60
674;DHT22;319;48.764;9.174;2022-10-16T15:13:14;24.00;96.60
674;DHT22;319;48.764;9.174;2022-10-16T15:15:44;23.90;96.10
674;DHT22;319;48.764;9.174;2022-10-16T15:18:11;23.90;95.90
674;DHT22;319;48.764;9.174;2022-10-16T15:20:40;23.90;94.50
674;DHT22;319;48.764;9.174;2022-10-16T15:23:14;24.00;94.10
674;DHT22;319;48.764;9.174;2022-10-16T15:25:43;24.00;94.50
674;DHT22;319;48.764;9.174;2022-10-16T15:28:12;23.90;95.90
674;DHT22;319;48.764;9.174;2022-10-16T15:30:39;23.80;96.30
674;DHT22;319;48.764;9.174;2022-10-16T15:33:13;23.70;96.90
674;DHT22;319;48.764;9.174;2022-10-16T15:35:40;23.50;97.20
674;DHT22;319;48.764;9.174;2022-10-16T15:38:11;23.30;97.50
674;DHT22;319;48.764;9.174;2022-10-16T15:40:38;23.20;97.90
674;DHT22;319;48.764;9.174;2022-10-16T15:43:09;23.10;98.10
674;DHT22;319;48.764;9.174;2022-10-16T15:45:37;23.10;98.10
674;DHT22;319;48.764;9.174;2022-10-16T15:48:04;23.00;98.50
674;DHT22;319;48.764;9.174;2022-10-16T15:50:33;22.80;98.60
674;DHT22;319;48.764;9.174;2022-10-16T15:53:01;22.70;99.20
674;DHT22;319;48.764;9.174;2022-10-16T15:55:28;22.70;99.10
674;DHT22;319;48.764;9.174;2022-10-16T15:57:55;22.70;99.30
674;DHT22;319;48.764;9.174;2022-10-16T16:00:22;22.50;99.70
674;DHT22;319;48.764;9.174;2022-10-16T16:02:52;22.50;99.50
674;DHT22;319;48.764;9.174;2022-10-16T16:05:21;22.40;99.50
674;DHT22;319;48.764;9.174;2022-10-16T16:07:50;22.40;99.50
674;DHT22;319;48.764;9.174;2022-10-16T16:10:25;22.40;99.60
674;DHT22;319;48.764;9.174;2022-10-16T16:12:52;22.30;99.70
674;DHT22;319;48.764;9.174;2022-10-16T16:15:25;22.20;99.70
674;DHT22;319;48.764;9.174;2022-10-16T16:17:51;22.10;99.90
674;DHT22;319;48.764;9.174;2022-10-16T16:20:20;22.00;99.90
674;DHT22;319;48.764;9.174;2022-10-16T16:22:47;21.90;99.90
674;DHT22;319;48.764;9.174;2022-10-16T16:25:19;21.70;99.90
674;DHT22;319;48.764;9.174;2022-10-16T16:28:02;21.60;99.90
674;DHT22;319;48.764;9.174;2022-10-16T16:30:40;21.60;99.90
674;DHT22;319;48.764;9.174;2022-10-16T16:33:07;21.40;99.90
674;DHT22;319;48.764;9.174;2022-10-16T16:35:35;21.30;99.90
674;DHT22;319;48.764;9.174;2022-10-16T16:38:01;21.20;99.90
674;DHT22;319;48.764;9.174;2022-10-16T16:40:29;21.10;99.90
674;DHT22;319;48.764;9.174;2022-10-16T16:42:56;21.00;99.90
674;DHT22;319;48.764;9.174;2022-10-16T16:45:23;21.00;99.90
674;DHT22;319;48.764;9.174;2022-10-16T16:47:51;21.00;99.90
674;DHT22;319;48.764;9.174;2022-10-16T16:50:18;20.90;99.90
674;DHT22;319;48.764;9.174;2022-10-16T16:52:44;20.90;99.90
674;DHT22;319;48.764;9.174;2022-10-16T16:55:11;20.90;99.90
674;DHT22;319;48.764;9.174;2022-10-16T16:57:39;20.80;99.90
674;DHT22;319;48.764;9.174;2022-10-16T17:00:07;20.80;99.90
674;DHT22;319;48.764;9.174;2022-10-16T17:02:34;20.80;99.90
674;DHT22;319;48.764;9.174;2022-10-16T17:05:01;20.70;99.90
674;DHT22;319;48.764;9.174;2022-10-16T17:07:31;20.70;99.90
674;DHT22;319;48.764;9.174;2022-10-16T17:09:58;20.60;99.90
674;DHT22;319;48.764;9.174;2022-10-16T17:12:24;20.60;99.90